LAN4286 SKBO-SKPS
Flight info
| Callsign | LAN4286 |
|---|---|
| Flight time | 0h 48m |
| Altitude | 36000 |
| Route | VAPOM4R OREGA DCT MER |
| Aircraft | A320/M-SDE3FGHIRWY/LB1 |
Departure
| Time | 2026-04-23 18:17 |
|---|---|
| Airport | El Dorado International Airport (SKBO) |
Arrival
| Time | 2026-04-23 19:05 |
|---|---|
| Airport | Antonio Nariño Airport (SKPS) |
| Time | Latitude | Longitude | Altitude | Speed | Heading |
|---|---|---|---|---|---|
| 2026-04-23 17:56 | 4.70061 | -74.14442 | 8373 ft | 0 kts | 60° |
| 2026-04-23 18:05 | 4.70060 | -74.14444 | 8373 ft | 2 kts | 60° |
| 2026-04-23 18:06 | 4.70044 | -74.14464 | 8372 ft | 4 kts | 34° |
| 2026-04-23 18:06 | 4.70022 | -74.14472 | 8373 ft | 4 kts | 341° |
| 2026-04-23 18:06 | 4.70005 | -74.14459 | 8373 ft | 4 kts | 308° |
| 2026-04-23 18:06 | 4.69996 | -74.14447 | 8373 ft | 0 kts | 307° |
| 2026-04-23 18:08 | 4.70000 | -74.14453 | 8371 ft | 4 kts | 307° |
| 2026-04-23 18:09 | 4.70026 | -74.14488 | 8372 ft | 8 kts | 307° |
| 2026-04-23 18:09 | 4.70062 | -74.14535 | 8373 ft | 9 kts | 307° |
| 2026-04-23 18:09 | 4.70080 | -74.14580 | 8373 ft | 1 kts | 253° |
| 2026-04-23 18:09 | 4.70061 | -74.14594 | 8372 ft | 9 kts | 208° |
| 2026-04-23 18:10 | 4.70022 | -74.14617 | 8373 ft | 0 kts | 215° |
| 2026-04-23 18:10 | 4.70022 | -74.14618 | 8373 ft | 1 kts | 215° |
| 2026-04-23 18:11 | 4.69994 | -74.14638 | 8371 ft | 9 kts | 217° |
| 2026-04-23 18:11 | 4.69922 | -74.14692 | 8371 ft | 17 kts | 217° |
| 2026-04-23 18:11 | 4.69831 | -74.14760 | 8372 ft | 16 kts | 217° |
| 2026-04-23 18:11 | 4.69743 | -74.14810 | 8373 ft | 13 kts | 176° |
| 2026-04-23 18:12 | 4.69701 | -74.14771 | 8373 ft | 12 kts | 126° |
| 2026-04-23 18:12 | 4.69656 | -74.14712 | 8373 ft | 10 kts | 128° |
| 2026-04-23 18:12 | 4.69620 | -74.14665 | 8373 ft | 8 kts | 126° |
| 2026-04-23 18:12 | 4.69589 | -74.14621 | 8373 ft | 8 kts | 126° |
| 2026-04-23 18:13 | 4.69549 | -74.14569 | 8373 ft | 13 kts | 128° |
| 2026-04-23 18:13 | 4.69483 | -74.14482 | 8373 ft | 16 kts | 126° |
| 2026-04-23 18:13 | 4.69420 | -74.14398 | 8372 ft | 14 kts | 127° |
| 2026-04-23 18:13 | 4.69365 | -74.14327 | 8370 ft | 12 kts | 127° |
| 2026-04-23 18:14 | 4.69320 | -74.14268 | 8373 ft | 10 kts | 127° |
| 2026-04-23 18:14 | 4.69285 | -74.14221 | 8373 ft | 8 kts | 127° |
| 2026-04-23 18:14 | 4.69230 | -74.14149 | 8373 ft | 16 kts | 127° |
| 2026-04-23 18:14 | 4.69152 | -74.14083 | 8373 ft | 13 kts | 186° |
| 2026-04-23 18:15 | 4.69091 | -74.14126 | 8373 ft | 11 kts | 215° |
| 2026-04-23 18:15 | 4.69029 | -74.14174 | 8373 ft | 12 kts | 218° |
| 2026-04-23 18:15 | 4.69024 | -74.14235 | 8373 ft | 8 kts | 310° |
| 2026-04-23 18:15 | 4.69031 | -74.14243 | 8373 ft | 0 kts | 308° |
| 2026-04-23 18:16 | 4.69079 | -74.14306 | 8374 ft | 41 kts | 307° |
| 2026-04-23 18:16 | 4.69399 | -74.14733 | 8371 ft | 109 kts | 307° |
| 2026-04-23 18:16 | 4.69971 | -74.15489 | 8373 ft | 162 kts | 307° |
| 2026-04-23 18:17 | 4.71481 | -74.17504 | 9561 ft | 184 kts | 305° |
| 2026-04-23 18:17 | 4.72221 | -74.18544 | 10121 ft | 185 kts | 304° |
| 2026-04-23 18:17 | 4.72914 | -74.19648 | 10496 ft | 193 kts | 294° |
| 2026-04-23 18:17 | 4.73387 | -74.20912 | 11010 ft | 193 kts | 285° |
| 2026-04-23 18:18 | 4.73758 | -74.22234 | 11397 ft | 203 kts | 285° |
| 2026-04-23 18:18 | 4.74159 | -74.23665 | 11540 ft | 225 kts | 285° |
| 2026-04-23 18:18 | 4.74600 | -74.25266 | 11684 ft | 250 kts | 282° |
| 2026-04-23 18:18 | 4.74627 | -74.27075 | 11917 ft | 273 kts | 259° |
| 2026-04-23 18:19 | 4.74241 | -74.29028 | 12164 ft | 297 kts | 258° |
| 2026-04-23 18:19 | 4.73808 | -74.31143 | 12386 ft | 321 kts | 258° |
| 2026-04-23 18:19 | 4.73344 | -74.33395 | 12745 ft | 337 kts | 258° |
| 2026-04-23 18:19 | 4.72864 | -74.35728 | 13353 ft | 344 kts | 258° |
| 2026-04-23 18:20 | 4.72385 | -74.38091 | 14033 ft | 348 kts | 258° |
| 2026-04-23 18:20 | 4.71906 | -74.40479 | 14646 ft | 351 kts | 258° |
| 2026-04-23 18:20 | 4.71364 | -74.42846 | 15235 ft | 355 kts | 250° |
| 2026-04-23 18:20 | 4.70112 | -74.44978 | 15819 ft | 359 kts | 230° |
| 2026-04-23 18:21 | 4.68335 | -74.46749 | 16435 ft | 362 kts | 220° |
| 2026-04-23 18:21 | 4.66310 | -74.48274 | 17047 ft | 366 kts | 215° |
| 2026-04-23 18:21 | 4.64176 | -74.49691 | 17652 ft | 369 kts | 213° |
| 2026-04-23 18:21 | 4.62016 | -74.51102 | 18223 ft | 372 kts | 214° |
| 2026-04-23 18:22 | 4.59855 | -74.52574 | 18748 ft | 376 kts | 215° |
| 2026-04-23 18:22 | 4.57723 | -74.54108 | 19267 ft | 379 kts | 217° |
| 2026-04-23 18:22 | 4.55596 | -74.55703 | 19781 ft | 383 kts | 218° |
| 2026-04-23 18:22 | 4.53471 | -74.57336 | 20292 ft | 387 kts | 218° |
| 2026-04-23 18:23 | 4.51333 | -74.58997 | 20806 ft | 391 kts | 218° |
| 2026-04-23 18:23 | 4.47019 | -74.62344 | 21819 ft | 398 kts | 218° |
| 2026-04-23 18:24 | 4.42571 | -74.65761 | 22802 ft | 406 kts | 218° |
| 2026-04-23 18:24 | 4.40399 | -74.67578 | 23285 ft | 410 kts | 226° |
| 2026-04-23 18:24 | 4.38596 | -74.69812 | 23689 ft | 413 kts | 239° |
| 2026-04-23 18:25 | 4.35901 | -74.74934 | 24507 ft | 418 kts | 244° |
| 2026-04-23 18:25 | 4.34565 | -74.77535 | 24911 ft | 421 kts | 243° |
| 2026-04-23 18:25 | 4.33217 | -74.80156 | 25313 ft | 424 kts | 243° |
| 2026-04-23 18:25 | 4.31861 | -74.82789 | 25708 ft | 427 kts | 243° |
| 2026-04-23 18:26 | 4.30492 | -74.85446 | 26086 ft | 430 kts | 243° |
| 2026-04-23 18:26 | 4.29114 | -74.88118 | 26453 ft | 433 kts | 243° |
| 2026-04-23 18:26 | 4.27725 | -74.90810 | 26824 ft | 436 kts | 243° |
| 2026-04-23 18:26 | 4.26328 | -74.93514 | 27175 ft | 439 kts | 243° |
| 2026-04-23 18:27 | 4.24936 | -74.96207 | 27516 ft | 441 kts | 242° |
| 2026-04-23 18:27 | 4.23521 | -74.98947 | 27884 ft | 443 kts | 242° |
| 2026-04-23 18:27 | 4.22100 | -75.01701 | 28288 ft | 446 kts | 242° |
| 2026-04-23 18:27 | 4.20634 | -75.04446 | 28578 ft | 448 kts | 237° |
| 2026-04-23 18:28 | 4.18820 | -75.06986 | 28934 ft | 450 kts | 232° |
| 2026-04-23 18:28 | 4.16938 | -75.09502 | 29269 ft | 452 kts | 232° |
| 2026-04-23 18:28 | 4.15041 | -75.12035 | 29607 ft | 455 kts | 232° |
| 2026-04-23 18:28 | 4.13135 | -75.14580 | 29922 ft | 457 kts | 232° |
| 2026-04-23 18:29 | 4.11220 | -75.17135 | 30185 ft | 460 kts | 232° |
| 2026-04-23 18:29 | 4.09322 | -75.19670 | 30450 ft | 461 kts | 232° |
| 2026-04-23 18:29 | 4.07390 | -75.22251 | 30754 ft | 463 kts | 232° |
| 2026-04-23 18:29 | 4.05453 | -75.24841 | 31023 ft | 464 kts | 231° |
| 2026-04-23 18:30 | 4.03509 | -75.27438 | 31269 ft | 466 kts | 231° |
| 2026-04-23 18:30 | 4.01559 | -75.30041 | 31511 ft | 468 kts | 231° |
| 2026-04-23 18:30 | 3.99604 | -75.32653 | 31775 ft | 469 kts | 231° |
| 2026-04-23 18:30 | 3.97647 | -75.35265 | 32125 ft | 468 kts | 231° |
| 2026-04-23 18:31 | 3.95694 | -75.37867 | 32539 ft | 467 kts | 231° |
| 2026-04-23 18:31 | 3.93783 | -75.40412 | 32920 ft | 465 kts | 231° |
| 2026-04-23 18:31 | 3.91839 | -75.43006 | 33275 ft | 464 kts | 231° |
| 2026-04-23 18:31 | 3.89902 | -75.45594 | 33636 ft | 463 kts | 231° |
| 2026-04-23 18:32 | 3.87960 | -75.48167 | 33984 ft | 462 kts | 229° |
| 2026-04-23 18:32 | 3.85774 | -75.50496 | 34361 ft | 458 kts | 219° |
| 2026-04-23 18:32 | 3.83311 | -75.52512 | 34660 ft | 456 kts | 216° |
| 2026-04-23 18:32 | 3.80827 | -75.54484 | 34977 ft | 455 kts | 216° |
| 2026-04-23 18:33 | 3.78347 | -75.56452 | 35299 ft | 454 kts | 216° |
| 2026-04-23 18:33 | 3.75873 | -75.58419 | 35607 ft | 453 kts | 216° |
| 2026-04-23 18:33 | 3.73407 | -75.60384 | 35903 ft | 453 kts | 217° |
| 2026-04-23 18:34 | 3.68511 | -75.64295 | 36052 ft | 446 kts | 217° |
| 2026-04-23 18:34 | 3.63711 | -75.68132 | 36044 ft | 443 kts | 216° |
| 2026-04-23 18:35 | 3.58885 | -75.71977 | 36044 ft | 443 kts | 216° |
| 2026-04-23 18:35 | 3.54055 | -75.75821 | 36049 ft | 443 kts | 216° |
| 2026-04-23 18:36 | 3.49223 | -75.79663 | 36086 ft | 443 kts | 216° |
| 2026-04-23 18:36 | 3.44396 | -75.83505 | 36085 ft | 443 kts | 216° |
| 2026-04-23 18:37 | 3.39567 | -75.87352 | 36081 ft | 443 kts | 216° |
| 2026-04-23 18:37 | 3.34741 | -75.91204 | 36085 ft | 444 kts | 216° |
| 2026-04-23 18:38 | 3.29916 | -75.95044 | 36089 ft | 444 kts | 216° |
| 2026-04-23 18:38 | 3.25088 | -75.98896 | 36094 ft | 444 kts | 216° |
| 2026-04-23 18:39 | 3.20265 | -76.02742 | 36088 ft | 444 kts | 216° |
| 2026-04-23 18:39 | 3.15465 | -76.06561 | 36093 ft | 444 kts | 216° |
| 2026-04-23 18:40 | 3.10632 | -76.10405 | 36081 ft | 443 kts | 216° |
| 2026-04-23 18:40 | 3.05807 | -76.14249 | 36080 ft | 443 kts | 216° |
| 2026-04-23 18:41 | 3.00980 | -76.18091 | 36093 ft | 443 kts | 216° |
| 2026-04-23 18:41 | 2.96148 | -76.21930 | 36068 ft | 443 kts | 216° |
| 2026-04-23 18:42 | 2.91313 | -76.25771 | 36056 ft | 444 kts | 216° |
| 2026-04-23 18:42 | 2.86480 | -76.29621 | 36049 ft | 445 kts | 216° |
| 2026-04-23 18:43 | 2.81637 | -76.33478 | 36067 ft | 445 kts | 216° |
| 2026-04-23 18:43 | 2.76772 | -76.37349 | 35754 ft | 446 kts | 216° |
| 2026-04-23 18:43 | 2.74356 | -76.39271 | 35306 ft | 442 kts | 216° |
| 2026-04-23 18:44 | 2.71955 | -76.41185 | 34766 ft | 440 kts | 216° |
| 2026-04-23 18:44 | 2.69596 | -76.43063 | 34240 ft | 438 kts | 216° |
| 2026-04-23 18:44 | 2.67211 | -76.44960 | 33655 ft | 437 kts | 216° |
| 2026-04-23 18:44 | 2.64839 | -76.46846 | 33133 ft | 433 kts | 216° |
| 2026-04-23 18:45 | 2.62489 | -76.48716 | 32601 ft | 431 kts | 216° |
| 2026-04-23 18:45 | 2.60148 | -76.50578 | 32076 ft | 428 kts | 216° |
| 2026-04-23 18:45 | 2.57823 | -76.52429 | 31548 ft | 426 kts | 216° |
| 2026-04-23 18:45 | 2.55510 | -76.54271 | 31043 ft | 424 kts | 217° |
| 2026-04-23 18:46 | 2.53205 | -76.56105 | 30531 ft | 422 kts | 217° |
| 2026-04-23 18:46 | 2.50912 | -76.57927 | 29970 ft | 420 kts | 217° |
| 2026-04-23 18:46 | 2.48638 | -76.59734 | 29453 ft | 416 kts | 217° |
| 2026-04-23 18:46 | 2.46386 | -76.61523 | 28963 ft | 411 kts | 217° |
| 2026-04-23 18:47 | 2.44147 | -76.63300 | 28472 ft | 407 kts | 217° |
| 2026-04-23 18:47 | 2.41940 | -76.65050 | 28006 ft | 403 kts | 217° |
| 2026-04-23 18:47 | 2.39773 | -76.66772 | 27542 ft | 400 kts | 217° |
| 2026-04-23 18:47 | 2.37601 | -76.68499 | 27070 ft | 397 kts | 217° |
| 2026-04-23 18:48 | 2.35446 | -76.70211 | 26598 ft | 394 kts | 217° |
| 2026-04-23 18:48 | 2.33308 | -76.71907 | 26115 ft | 392 kts | 216° |
| 2026-04-23 18:48 | 2.31179 | -76.73595 | 25635 ft | 389 kts | 217° |
| 2026-04-23 18:48 | 2.29063 | -76.75275 | 25138 ft | 387 kts | 217° |
| 2026-04-23 18:49 | 2.26961 | -76.76948 | 24637 ft | 386 kts | 218° |
| 2026-04-23 18:49 | 2.24863 | -76.78620 | 24123 ft | 385 kts | 218° |
| 2026-04-23 18:49 | 2.22765 | -76.80291 | 23583 ft | 385 kts | 217° |
| 2026-04-23 18:49 | 2.20675 | -76.81954 | 23003 ft | 383 kts | 217° |
| 2026-04-23 18:50 | 2.19299 | -76.83045 | 22668 ft | 381 kts | 217° |
| 2026-04-23 18:50 | 2.16526 | -76.85243 | 21992 ft | 378 kts | 218° |
| 2026-04-23 18:50 | 2.14469 | -76.86876 | 21501 ft | 376 kts | 218° |
| 2026-04-23 18:50 | 2.12424 | -76.88504 | 21013 ft | 374 kts | 218° |
| 2026-04-23 18:51 | 2.10394 | -76.90120 | 20528 ft | 372 kts | 218° |
| 2026-04-23 18:51 | 2.08376 | -76.91723 | 20052 ft | 370 kts | 218° |
| 2026-04-23 18:51 | 2.06392 | -76.93296 | 19592 ft | 368 kts | 218° |
| 2026-04-23 18:51 | 2.04413 | -76.94863 | 19100 ft | 355 kts | 219° |
| 2026-04-23 18:52 | 2.02515 | -76.96367 | 18662 ft | 342 kts | 219° |
| 2026-04-23 18:52 | 2.00656 | -76.97843 | 18214 ft | 341 kts | 219° |
| 2026-04-23 18:52 | 1.98803 | -76.99319 | 17749 ft | 340 kts | 219° |
| 2026-04-23 18:52 | 1.96958 | -77.00787 | 17320 ft | 338 kts | 219° |
| 2026-04-23 18:53 | 1.95128 | -77.02240 | 16901 ft | 335 kts | 219° |
| 2026-04-23 18:53 | 1.93296 | -77.03694 | 16492 ft | 334 kts | 219° |
| 2026-04-23 18:53 | 1.91481 | -77.05137 | 16075 ft | 332 kts | 219° |
| 2026-04-23 18:53 | 1.89675 | -77.06571 | 15664 ft | 331 kts | 219° |
| 2026-04-23 18:54 | 1.87873 | -77.08002 | 15257 ft | 330 kts | 219° |
| 2026-04-23 18:54 | 1.86093 | -77.09416 | 14839 ft | 329 kts | 219° |
| 2026-04-23 18:54 | 1.84303 | -77.10839 | 14424 ft | 328 kts | 219° |
| 2026-04-23 18:54 | 1.82545 | -77.12234 | 14296 ft | 318 kts | 219° |
| 2026-04-23 18:55 | 1.80841 | -77.13585 | 14174 ft | 304 kts | 219° |
| 2026-04-23 18:55 | 1.79224 | -77.14859 | 13912 ft | 290 kts | 217° |
| 2026-04-23 18:55 | 1.77508 | -77.15878 | 13595 ft | 285 kts | 209° |
| 2026-04-23 18:55 | 1.75770 | -77.16800 | 13355 ft | 281 kts | 210° |
| 2026-04-23 18:56 | 1.74628 | -77.17409 | 13191 ft | 280 kts | 209° |
| 2026-04-23 18:56 | 1.72338 | -77.18638 | 12855 ft | 279 kts | 209° |
| 2026-04-23 18:56 | 1.70622 | -77.19560 | 12594 ft | 279 kts | 210° |
| 2026-04-23 18:56 | 1.68922 | -77.20474 | 12340 ft | 277 kts | 210° |
| 2026-04-23 18:57 | 1.67223 | -77.21386 | 12087 ft | 276 kts | 210° |
| 2026-04-23 18:57 | 1.65529 | -77.22292 | 11837 ft | 275 kts | 209° |
| 2026-04-23 18:57 | 1.63850 | -77.23189 | 11628 ft | 271 kts | 209° |
| 2026-04-23 18:57 | 1.62199 | -77.24069 | 11360 ft | 270 kts | 209° |
| 2026-04-23 18:58 | 1.60567 | -77.24940 | 11143 ft | 267 kts | 210° |
| 2026-04-23 18:58 | 1.58924 | -77.25817 | 10884 ft | 268 kts | 209° |
| 2026-04-23 18:58 | 1.57307 | -77.26679 | 10618 ft | 260 kts | 209° |
| 2026-04-23 18:58 | 1.55717 | -77.27527 | 10384 ft | 259 kts | 209° |
| 2026-04-23 18:59 | 1.54144 | -77.28369 | 10234 ft | 253 kts | 209° |
| 2026-04-23 18:59 | 1.52618 | -77.29187 | 10087 ft | 244 kts | 209° |
| 2026-04-23 18:59 | 1.51125 | -77.29958 | 9891 ft | 236 kts | 208° |
| 2026-04-23 18:59 | 1.49677 | -77.30684 | 9545 ft | 231 kts | 209° |
| 2026-04-23 19:00 | 1.48735 | -77.31153 | 9385 ft | 225 kts | 207° |
| 2026-04-23 19:00 | 1.47353 | -77.31837 | 9163 ft | 218 kts | 208° |
| 2026-04-23 19:00 | 1.46011 | -77.32503 | 8871 ft | 213 kts | 207° |
| 2026-04-23 19:00 | 1.44700 | -77.33157 | 8698 ft | 203 kts | 208° |
| 2026-04-23 19:01 | 1.43516 | -77.33747 | 8676 ft | 177 kts | 207° |
| 2026-04-23 19:01 | 1.42438 | -77.34286 | 8676 ft | 174 kts | 207° |
| 2026-04-23 19:01 | 1.41347 | -77.34833 | 8686 ft | 177 kts | 208° |
| 2026-04-23 19:01 | 1.40247 | -77.35386 | 8835 ft | 177 kts | 209° |
| 2026-04-23 19:02 | 1.39161 | -77.35932 | 8813 ft | 167 kts | 207° |
| 2026-04-23 19:02 | 1.38127 | -77.36396 | 8757 ft | 163 kts | 198° |
| 2026-04-23 19:02 | 1.37034 | -77.36534 | 8481 ft | 159 kts | 179° |
| 2026-04-23 19:02 | 1.35953 | -77.36300 | 8256 ft | 160 kts | 158° |
| 2026-04-23 19:03 | 1.35005 | -77.35726 | 8061 ft | 159 kts | 138° |
| 2026-04-23 19:03 | 1.34307 | -77.34892 | 7838 ft | 156 kts | 119° |
| 2026-04-23 19:03 | 1.33930 | -77.33882 | 7619 ft | 155 kts | 98° |
| 2026-04-23 19:03 | 1.33971 | -77.32822 | 7332 ft | 152 kts | 73° |
| 2026-04-23 19:04 | 1.34404 | -77.31870 | 7210 ft | 151 kts | 58° |
| 2026-04-23 19:04 | 1.35021 | -77.31018 | 7012 ft | 151 kts | 48° |
| 2026-04-23 19:04 | 1.35783 | -77.30309 | 6750 ft | 150 kts | 31° |
| 2026-04-23 19:04 | 1.36718 | -77.29871 | 6441 ft | 148 kts | 14° |
| 2026-04-23 19:05 | 1.37704 | -77.29624 | 6225 ft | 146 kts | 17° |
| 2026-04-23 19:05 | 1.38684 | -77.29357 | 5975 ft | 146 kts | 13° |
| 2026-04-23 19:05 | 1.39495 | -77.29153 | 5916 ft | 63 kts | 15° |
| 2026-04-23 19:05 | 1.39657 | -77.29098 | 5908 ft | 18 kts | 26° |
| 2026-04-23 19:06 | 1.39669 | -77.29038 | 5913 ft | 5 kts | 105° |
| 2026-04-23 19:06 | 1.39667 | -77.29031 | 5920 ft | 0 kts | 106° |
| 2026-04-23 19:06 | 1.39648 | -77.29014 | 5907 ft | 5 kts | 161° |
| 2026-04-23 19:06 | 1.39629 | -77.29017 | 5907 ft | 1 kts | 192° |
| 2026-04-23 19:07 | 1.39604 | -77.29023 | 5907 ft | 11 kts | 195° |
| 2026-04-23 19:07 | 1.39568 | -77.29033 | 5908 ft | 3 kts | 195° |
| 2026-04-23 19:07 | 1.39557 | -77.29032 | 5908 ft | 3 kts | 167° |
| 2026-04-23 19:07 | 1.39546 | -77.29007 | 5908 ft | 3 kts | 104° |
| 2026-04-23 19:08 | 1.39543 | -77.28995 | 5908 ft | 1 kts | 104° |
| 2026-04-23 19:08 | 1.39542 | -77.28993 | 5908 ft | 0 kts | 104° |
| 2026-04-23 19:08 | 1.39542 | -77.28992 | 5908 ft | 0 kts | 104° |